Time;durP1;ratioP1;P1;durP2;ratioP2;P2;SDS_P1;SDS_P2;PMS_P1;PMS_P2;Temp;Humidity;BMP_temperature;BMP_pressure;BME280_temperature;BME280_humidity;BME280_pressure;Samples;Min_cycle;Max_cycle;Signal;HPM_P1;HPM_P2
2021/08/08 00:00:58;;;;;;;3.03;2.08;;;18.60;99.90;;;;;;5035352;28;20472;-37
2021/08/08 00:03:24;;;;;;;3.83;2.00;;;18.50;99.90;;;;;;5033947;28;20049;-38
2021/08/08 00:05:50;;;;;;;2.03;1.75;;;18.50;99.90;;;;;;5035185;28;20035;-37
2021/08/08 00:08:18;;;;;;;2.80;1.70;;;18.50;99.90;;;;;;5035332;28;20037;-38
2021/08/08 00:10:44;;;;;;;2.38;1.70;;;18.50;99.90;;;;;;5035189;28;20028;-38
2021/08/08 00:13:10;;;;;;;2.67;1.58;;;18.50;99.90;;;;;;5035221;28;20026;-37
2021/08/08 00:15:37;;;;;;;2.03;1.52;;;18.50;99.90;;;;;;5035120;28;20414;-37
2021/08/08 00:18:04;;;;;;;2.03;1.65;;;18.50;99.90;;;;;;5033697;28;20022;-38
2021/08/08 00:20:30;;;;;;;2.75;1.95;;;18.50;99.90;;;;;;5034961;28;20172;-37
2021/08/08 00:22:55;;;;;;;1.60;1.50;;;18.50;99.90;;;;;;5034973;28;20509;-37
2021/08/08 00:25:21;;;;;;;1.92;1.75;;;18.50;99.90;;;;;;5035021;28;20030;-37
2021/08/08 00:27:47;;;;;;;3.97;2.20;;;18.40;99.90;;;;;;5034921;28;20144;-37
2021/08/08 00:30:12;;;;;;;3.30;2.28;;;18.30;99.90;;;;;;5034996;28;20072;-37
2021/08/08 00:32:39;;;;;;;3.60;2.00;;;18.20;99.90;;;;;;5033638;28;20045;-37
2021/08/08 00:35:05;;;;;;;3.35;2.45;;;18.20;99.90;;;;;;5034632;28;20071;-37
2021/08/08 00:37:30;;;;;;;3.35;2.00;;;18.10;99.90;;;;;;5034750;28;20033;-37
2021/08/08 00:39:56;;;;;;;2.55;1.63;;;18.10;99.90;;;;;;5034359;28;20033;-38
2021/08/08 00:42:21;;;;;;;3.03;1.75;;;18.10;99.90;;;;;;5034670;28;20045;-38
2021/08/08 00:44:47;;;;;;;2.65;1.90;;;18.00;99.90;;;;;;5034470;28;20026;-37
2021/08/08 00:47:13;;;;;;;3.03;2.10;;;18.00;99.90;;;;;;5034504;28;20033;-38
2021/08/08 00:49:39;;;;;;;2.50;2.10;;;17.90;99.90;;;;;;5033064;28;20033;-37
2021/08/08 00:52:04;;;;;;;3.63;1.88;;;17.90;99.90;;;;;;5034403;28;20030;-37
2021/08/08 00:54:30;;;;;;;1.90;1.52;;;17.80;99.90;;;;;;5034399;28;20026;-37
2021/08/08 00:56:55;;;;;;;2.63;1.98;;;17.70;99.90;;;;;;5034261;28;20037;-38
2021/08/08 00:59:21;;;;;;;2.45;1.85;;;17.70;99.90;;;;;;5034416;28;20036;-37
2021/08/08 01:01:48;;;;;;;2.30;1.70;;;17.60;99.90;;;;;;5034288;28;20385;-37
2021/08/08 01:04:19;;;;;;;3.47;1.60;;;17.50;99.90;;;;;;5032495;28;20443;-38
2021/08/08 01:06:52;;;;;;;3.25;1.90;;;17.40;99.90;;;;;;5033409;28;20037;-37
2021/08/08 01:09:20;;;;;;;3.53;2.47;;;17.40;99.90;;;;;;5034210;28;20125;-38
2021/08/08 01:11:46;;;;;;;2.03;1.70;;;17.30;99.90;;;;;;5034028;28;20032;-38
2021/08/08 01:14:13;;;;;;;3.22;1.80;;;17.30;99.90;;;;;;5034000;28;20082;-37
2021/08/08 01:16:40;;;;;;;2.22;1.92;;;17.30;99.90;;;;;;5033823;28;20519;-37
2021/08/08 01:19:10;;;;;;;4.05;1.75;;;17.20;99.90;;;;;;5032680;28;20103;-37
2021/08/08 01:21:37;;;;;;;2.42;1.80;;;17.20;99.90;;;;;;5033891;28;20092;-37
2021/08/08 01:24:04;;;;;;;3.80;2.20;;;17.10;99.90;;;;;;5033645;28;20032;-37
2021/08/08 01:26:31;;;;;;;5.55;2.50;;;17.10;99.90;;;;;;5033891;28;20100;-38
2021/08/08 01:28:58;;;;;;;2.17;1.98;;;17.10;99.90;;;;;;5033677;28;20033;-37
2021/08/08 01:31:23;;;;;;;3.85;2.35;;;17.10;99.90;;;;;;5033581;28;20049;-37
2021/08/08 01:33:49;;;;;;;3.13;2.10;;;17.10;99.90;;;;;;5032396;28;20108;-38
2021/08/08 01:36:16;;;;;;;1.90;1.77;;;17.00;99.90;;;;;;5033498;28;20072;-37
2021/08/08 01:38:58;;;;;;;3.60;1.90;;;16.90;99.90;;;;;;5033625;28;20027;-37
2021/08/08 01:41:27;;;;;;;2.03;1.65;;;16.90;99.90;;;;;;5033626;28;20032;-38
2021/08/08 01:43:55;;;;;;;3.13;1.80;;;16.80;99.90;;;;;;5033209;28;20061;-38
2021/08/08 01:46:23;;;;;;;1.92;1.30;;;16.70;99.90;;;;;;5033429;28;20056;-37
2021/08/08 01:48:53;;;;;;;2.63;1.70;;;16.70;99.90;;;;;;5032174;28;20029;-38
2021/08/08 01:51:20;;;;;;;2.75;2.13;;;16.60;99.90;;;;;;5033364;28;20021;-38
2021/08/08 01:53:46;;;;;;;2.90;1.80;;;16.60;99.90;;;;;;5033402;28;20112;-38
2021/08/08 01:56:12;;;;;;;2.95;1.90;;;16.50;99.90;;;;;;5033139;28;20129;-37
2021/08/08 01:58:38;;;;;;;1.80;1.48;;;16.40;99.90;;;;;;5033357;28;20025;-38
2021/08/08 02:01:04;;;;;;;2.00;1.65;;;16.50;99.90;;;;;;5033189;28;20457;-37
2021/08/08 02:03:37;;;;;;;2.03;1.75;;;16.40;99.90;;;;;;5031745;28;20059;-38
2021/08/08 02:06:07;;;;;;;1.77;1.50;;;16.30;99.90;;;;;;5033045;28;20064;-37
2021/08/08 02:08:32;;;;;;;1.95;1.60;;;16.30;99.90;;;;;;5033051;28;20025;-37
2021/08/08 02:10:58;;;;;;;2.65;1.90;;;16.20;99.90;;;;;;5032799;28;20035;-37
2021/08/08 02:13:25;;;;;;;3.25;1.67;;;16.10;99.90;;;;;;5031842;28;20060;-37
2021/08/08 02:15:50;;;;;;;2.15;1.83;;;16.10;99.90;;;;;;5032849;28;20029;-37
2021/08/08 02:18:16;;;;;;;3.55;1.90;;;16.10;99.90;;;;;;5031808;28;20029;-37
2021/08/08 02:20:44;;;;;;;1.83;1.73;;;16.10;99.90;;;;;;5032895;28;20021;-38
2021/08/08 02:23:10;;;;;;;1.80;1.50;;;16.10;99.90;;;;;;5033046;28;20033;-37
2021/08/08 02:25:35;;;;;;;3.60;1.80;;;16.10;99.90;;;;;;5032686;28;20021;-37
2021/08/08 02:28:01;;;;;;;1.98;1.42;;;16.00;99.90;;;;;;5032682;28;20109;-38
2021/08/08 02:30:27;;;;;;;3.20;1.70;;;16.00;99.90;;;;;;5032766;28;20013;-37
2021/08/08 02:32:52;;;;;;;2.65;1.90;;;15.90;99.90;;;;;;5031424;28;20380;-38
2021/08/08 02:35:18;;;;;;;2.13;1.88;;;15.90;99.90;;;;;;5032576;28;20076;-38
2021/08/08 02:37:43;;;;;;;3.97;1.90;;;15.90;99.90;;;;;;5032539;28;20100;-37
2021/08/08 02:40:09;;;;;;;5.78;2.08;;;15.90;99.90;;;;;;5032387;28;20068;-38
2021/08/08 02:42:35;;;;;;;3.83;2.05;;;15.80;99.90;;;;;;5032616;28;20026;-37
2021/08/08 02:45:00;;;;;;;2.20;1.70;;;15.80;99.90;;;;;;5032541;28;20025;-37
2021/08/08 02:47:30;;;;;;;3.35;1.85;;;15.70;99.90;;;;;;5031252;28;20026;-37
2021/08/08 02:49:56;;;;;;;2.42;2.00;;;15.70;99.90;;;;;;5032523;28;20026;-37
2021/08/08 02:52:22;;;;;;;2.05;1.65;;;15.70;99.90;;;;;;5032391;28;20485;-37
2021/08/08 02:54:47;;;;;;;3.17;2.40;;;15.70;99.90;;;;;;5032290;28;20044;-38
2021/08/08 02:57:13;;;;;;;2.28;1.90;;;15.70;99.90;;;;;;5032343;28;20505;-37
2021/08/08 02:59:38;;;;;;;1.83;1.63;;;15.70;99.90;;;;;;5032472;28;20159;-37
2021/08/08 03:02:04;;;;;;;4.22;1.95;;;15.80;99.90;;;;;;5031153;28;20465;-38
2021/08/08 03:04:30;;;;;;;3.67;2.13;;;15.80;99.90;;;;;;5030958;28;20049;-38
2021/08/08 03:06:55;;;;;;;3.30;2.10;;;15.90;99.90;;;;;;5032362;28;20029;-38
2021/08/08 03:09:21;;;;;;;2.08;1.55;;;16.00;99.90;;;;;;5032175;28;20030;-37
2021/08/08 03:11:46;;;;;;;3.22;2.15;;;16.10;99.90;;;;;;5032405;28;20061;-37
2021/08/08 03:14:17;;;;;;;2.13;1.77;;;16.10;99.90;;;;;;5032281;28;20030;-37
2021/08/08 03:16:43;;;;;;;1.92;1.63;;;16.10;99.90;;;;;;5032266;28;20040;-38
2021/08/08 03:19:13;;;;;;;2.03;1.50;;;16.10;99.90;;;;;;5031008;28;20025;-37
2021/08/08 03:21:39;;;;;;;3.38;1.75;;;16.10;99.90;;;;;;5032354;28;20017;-38
2021/08/08 03:24:05;;;;;;;2.13;1.58;;;16.20;99.90;;;;;;5032307;28;20354;-38
2021/08/08 03:26:32;;;;;;;4.50;1.85;;;16.20;99.90;;;;;;5032226;28;20033;-39
2021/08/08 03:28:57;;;;;;;1.85;1.70;;;16.20;99.90;;;;;;5032513;28;20075;-37
2021/08/08 03:31:23;;;;;;;8.50;1.98;;;16.30;99.90;;;;;;5035968;28;20029;-38
2021/08/08 03:33:48;;;;;;;2.95;1.80;;;16.30;99.90;;;;;;5034794;28;20041;-38
2021/08/08 03:36:14;;;;;;;2.80;1.67;;;16.40;99.90;;;;;;5035792;28;20056;-38
2021/08/08 03:38:39;;;;;;;4.13;1.50;;;16.40;99.90;;;;;;5035831;28;20406;-38
2021/08/08 03:41:05;;;;;;;2.58;1.85;;;16.40;99.90;;;;;;5035801;28;20374;-37
2021/08/08 03:43:31;;;;;;;2.85;1.70;;;16.40;99.90;;;;;;5035762;28;20108;-38
2021/08/08 03:45:56;;;;;;;1.50;1.40;;;16.50;99.90;;;;;;5036029;28;20045;-37
2021/08/08 03:48:22;;;;;;;2.85;2.15;;;16.50;99.90;;;;;;5034403;28;20021;-37
2021/08/08 03:50:47;;;;;;;2.58;1.98;;;16.50;99.90;;;;;;5035683;28;20105;-38
2021/08/08 03:53:13;;;;;;;2.35;1.70;;;16.40;99.90;;;;;;5035364;28;20029;-37
2021/08/08 03:55:38;;;;;;;1.50;1.40;;;16.40;99.90;;;;;;5035452;28;20041;-37
2021/08/08 03:58:04;;;;;;;1.67;1.50;;;16.40;99.90;;;;;;5035485;28;20057;-38
2021/08/08 04:00:29;;;;;;;2.30;1.58;;;16.40;99.90;;;;;;5035692;28;20380;-39
2021/08/08 04:02:55;;;;;;;1.70;1.60;;;16.50;99.90;;;;;;5034104;28;20021;-37
2021/08/08 04:05:21;;;;;;;2.95;1.85;;;16.50;99.90;;;;;;5035294;28;20128;-38
2021/08/08 04:07:46;;;;;;;2.72;1.80;;;16.60;99.90;;;;;;5035190;28;20034;-37
2021/08/08 04:10:12;;;;;;;1.52;1.27;;;16.60;99.90;;;;;;5035143;28;20028;-37
2021/08/08 04:12:38;;;;;;;2.15;1.40;;;16.70;99.90;;;;;;5035397;28;20380;-37
2021/08/08 04:15:06;;;;;;;5.03;2.00;;;16.70;99.90;;;;;;5035272;28;20097;-38
2021/08/08 04:17:31;;;;;;;2.38;1.67;;;16.80;99.90;;;;;;5033705;28;20546;-39
2021/08/08 04:19:57;;;;;;;2.47;1.90;;;16.80;99.90;;;;;;5035161;28;20033;-37
2021/08/08 04:22:23;;;;;;;5.20;1.60;;;16.80;99.90;;;;;;5034802;28;20037;-38
2021/08/08 04:24:48;;;;;;;1.60;1.50;;;16.80;99.90;;;;;;5035110;28;20041;-37
2021/08/08 04:27:14;;;;;;;1.67;1.30;;;16.80;99.90;;;;;;5034853;28;20041;-37
2021/08/08 04:29:41;;;;;;;1.52;1.40;;;16.80;99.90;;;;;;5034928;28;20033;-38
2021/08/08 04:32:07;;;;;;;1.95;1.30;;;16.80;99.90;;;;;;5034826;28;20021;-38
2021/08/08 04:34:33;;;;;;;2.28;1.38;;;16.70;99.90;;;;;;5033564;28;20048;-38
2021/08/08 04:36:59;;;;;;;2.65;1.20;;;16.70;99.90;;;;;;5034361;28;20462;-37
2021/08/08 04:39:24;;;;;;;2.38;1.38;;;16.70;99.90;;;;;;5034658;28;20033;-37
2021/08/08 04:41:52;;;;;;;3.17;1.40;;;16.70;99.90;;;;;;5033368;28;20362;-38
2021/08/08 04:44:18;;;;;;;3.13;1.50;;;16.80;99.90;;;;;;5034595;28;20029;-38
2021/08/08 04:46:44;;;;;;;5.63;1.58;;;17.20;99.90;;;;;;5034569;28;20432;-37
2021/08/08 04:49:09;;;;;;;3.05;1.52;;;18.40;99.90;;;;;;5033201;28;20052;-38
2021/08/08 04:51:35;;;;;;;2.45;1.73;;;19.00;99.90;;;;;;5032644;28;20037;-37
2021/08/08 04:54:00;;;;;;;2.40;1.40;;;20.30;99.90;;;;;;5032839;28;20513;-37
2021/08/08 04:56:25;;;;;;;2.08;1.17;;;21.40;99.90;;;;;;5032928;28;20047;-37
2021/08/08 04:58:51;;;;;;;1.23;0.80;;;22.10;99.90;;;;;;5033456;28;20029;-38
2021/08/08 05:01:16;;;;;;;5.30;1.38;;;22.80;99.90;;;;;;5033253;28;20022;-37
2021/08/08 05:03:42;;;;;;;2.70;1.10;;;23.00;99.90;;;;;;5032013;28;20496;-38
2021/08/08 05:06:08;;;;;;;2.42;1.30;;;23.30;99.90;;;;;;5033155;28;20033;-37
2021/08/08 05:08:33;;;;;;;3.05;1.25;;;23.00;99.90;;;;;;5033159;28;20097;-38
2021/08/08 05:10:58;;;;;;;3.28;1.30;;;22.80;99.90;;;;;;5033329;28;20045;-37
2021/08/08 05:13:28;;;;;;;1.63;1.15;;;22.90;99.90;;;;;;5033219;28;20033;-37
2021/08/08 05:15:54;;;;;;;3.60;1.17;;;22.90;99.90;;;;;;5033989;28;20037;-38
2021/08/08 05:18:19;;;;;;;1.20;1.10;;;23.20;99.90;;;;;;5031710;28;20033;-38
2021/08/08 05:20:45;;;;;;;2.67;1.45;;;23.90;99.90;;;;;;5043998;28;20022;-38
2021/08/08 05:23:10;;;;;;;1.70;0.75;;;24.80;99.90;;;;;;5034889;28;20036;-38
2021/08/08 05:25:36;;;;;;;1.30;0.90;;;24.70;99.90;;;;;;5033741;28;20108;-38
2021/08/08 05:28:01;;;;;;;2.55;1.08;;;24.70;99.90;;;;;;5032907;28;20064;-38
2021/08/08 05:30:27;;;;;;;1.85;1.15;;;24.20;99.90;;;;;;5039890;28;20029;-38
2021/08/08 05:32:52;;;;;;;2.42;1.00;;;24.00;99.90;;;;;;5031591;28;20075;-38
2021/08/08 05:35:18;;;;;;;2.20;1.00;;;24.60;99.90;;;;;;5043520;28;20514;-38
2021/08/08 05:37:43;;;;;;;1.23;1.00;;;25.10;96.40;;;;;;5052706;28;20461;-38
2021/08/08 05:40:13;;;;;;;1.38;0.90;;;24.60;98.40;;;;;;5050503;28;20407;-38
2021/08/08 05:42:46;;;;;;;1.05;0.90;;;24.20;99.20;;;;;;5046469;28;20025;-38
2021/08/08 05:45:11;;;;;;;2.65;1.00;;;23.60;99.80;;;;;;5041504;28;20063;-38
2021/08/08 05:47:37;;;;;;;2.25;1.15;;;23.10;99.90;;;;;;5030058;28;20407;-37
2021/08/08 05:50:03;;;;;;;1.50;0.90;;;22.70;99.90;;;;;;5038032;28;20484;-38
2021/08/08 05:52:28;;;;;;;2.30;1.02;;;22.30;99.90;;;;;;5032602;28;20033;-38
2021/08/08 05:54:54;;;;;;;2.22;1.13;;;22.00;99.90;;;;;;5032446;28;20026;-37
2021/08/08 05:57:19;;;;;;;1.30;1.00;;;21.70;99.90;;;;;;5039017;28;20096;-38
2021/08/08 05:59:45;;;;;;;1.48;0.90;;;21.70;99.90;;;;;;5049738;28;20022;-38
2021/08/08 06:02:10;;;;;;;1.35;1.17;;;22.10;99.90;;;;;;5041927;28;20108;-38
2021/08/08 06:04:36;;;;;;;2.35;1.35;;;23.70;99.90;;;;;;5030582;28;20509;-38
2021/08/08 06:07:01;;;;;;;2.83;1.30;;;25.50;94.60;;;;;;5051136;28;20040;-38
2021/08/08 06:09:27;;;;;;;2.38;0.82;;;26.80;89.60;;;;;;5051187;28;20021;-38
2021/08/08 06:11:52;;;;;;;1.45;1.00;;;28.00;84.50;;;;;;5036936;28;20425;-39
2021/08/08 06:14:18;;;;;;;4.15;0.98;;;29.00;79.10;;;;;;5050853;28;20044;-38
2021/08/08 06:16:43;;;;;;;2.30;1.30;;;30.10;75.00;;;;;;5033288;28;20104;-38
2021/08/08 06:19:09;;;;;;;1.30;0.90;;;30.90;71.00;;;;;;5029723;28;20501;-38
2021/08/08 06:21:34;;;;;;;0.95;0.80;;;31.60;67.50;;;;;;5036108;28;20472;-38
2021/08/08 06:24:00;;;;;;;0.82;0.80;;;32.20;63.40;;;;;;5051040;28;20017;-39
2021/08/08 06:26:25;;;;;;;1.33;0.90;;;32.60;61.10;;;;;;5036987;28;20079;-38
2021/08/08 06:28:53;;;;;;;2.08;1.10;;;32.80;56.60;;;;;;5030990;28;20048;-38
2021/08/08 06:31:18;;;;;;;1.58;1.00;;;32.70;51.90;;;;;;5040069;28;20500;-38
2021/08/08 06:33:44;;;;;;;1.35;1.00;;;32.90;51.50;;;;;;5030019;28;20148;-38
2021/08/08 06:36:09;;;;;;;1.60;0.80;;;33.20;51.00;;;;;;5031809;28;20108;-39
2021/08/08 06:38:35;;;;;;;0.98;0.85;;;33.60;49.50;;;;;;5030808;28;20120;-38
2021/08/08 06:41:01;;;;;;;1.88;0.98;;;34.10;48.00;;;;;;5037505;28;20099;-38
2021/08/08 06:43:27;;;;;;;1.00;0.60;;;34.30;46.30;;;;;;5051059;28;20115;-38
2021/08/08 06:45:52;;;;;;;1.42;0.88;;;34.40;43.20;;;;;;5044571;28;20425;-38
2021/08/08 06:48:18;;;;;;;2.45;0.80;;;34.40;42.50;;;;;;5030255;28;20029;-38
2021/08/08 06:50:43;;;;;;;1.83;0.93;;;34.50;40.90;;;;;;5035195;28;20412;-39
2021/08/08 06:53:09;;;;;;;1.80;0.90;;;34.70;40.10;;;;;;5050846;28;20472;-38
2021/08/08 06:55:34;;;;;;;1.35;0.80;;;34.70;36.40;;;;;;5047346;28;20548;-39
2021/08/08 06:57:59;;;;;;;1.42;0.80;;;34.60;35.80;;;;;;5045458;28;20064;-41
2021/08/08 07:00:25;;;;;;;1.10;0.75;;;34.90;36.70;;;;;;5032261;28;20060;-39
2021/08/08 07:02:51;;;;;;;0.98;0.88;;;35.10;36.60;;;;;;5040029;28;20040;-39
2021/08/08 07:05:16;;;;;;;0.98;0.60;;;35.10;33.40;;;;;;5051149;28;20025;-38
2021/08/08 07:07:42;;;;;;;2.65;0.70;;;35.40;34.30;;;;;;5066324;28;20025;-39
2021/08/08 07:10:08;;;;;;;0.98;0.77;;;36.00;33.00;;;;;;5036173;28;20033;-39
2021/08/08 07:12:33;;;;;;;0.82;0.63;;;36.30;32.10;;;;;;5050637;28;20037;-39
2021/08/08 07:14:59;;;;;;;2.28;0.73;;;36.40;31.50;;;;;;5052379;28;20048;-39
2021/08/08 07:17:24;;;;;;;1.20;0.80;;;36.90;29.90;;;;;;5050869;28;20273;-40
2021/08/08 07:19:50;;;;;;;1.05;0.80;;;37.20;30.20;;;;;;5036020;28;20104;-40
2021/08/08 07:22:15;;;;;;;2.30;0.95;;;37.60;29.60;;;;;;5051788;28;20029;-40
2021/08/08 07:24:41;;;;;;;1.27;0.80;;;37.60;28.40;;;;;;5052697;28;20100;-42
2021/08/08 07:27:07;;;;;;;4.22;0.80;;;37.60;27.70;;;;;;5051295;28;20033;-39
2021/08/08 07:29:33;;;;;;;1.60;1.02;;;36.70;27.80;;;;;;5052416;28;20189;-41
2021/08/08 07:31:58;;;;;;;1.25;0.70;;;35.80;27.70;;;;;;5050194;28;20029;-41
2021/08/08 07:34:24;;;;;;;1.55;0.75;;;35.50;28.10;;;;;;5050662;28;20481;-40
2021/08/08 07:36:49;;;;;;;0.55;0.55;;;35.30;28.40;;;;;;5052576;28;20134;-40
2021/08/08 07:39:15;;;;;;;0.73;0.60;;;35.80;28.20;;;;;;5043984;28;20100;-41
2021/08/08 07:41:40;;;;;;;1.67;0.70;;;35.50;28.40;;;;;;5051822;28;20357;-39
2021/08/08 07:44:06;;;;;;;1.17;0.63;;;34.40;28.40;;;;;;5047503;28;20029;-39
2021/08/08 07:46:32;;;;;;;1.05;0.77;;;34.30;28.90;;;;;;5045781;28;20425;-39
2021/08/08 07:48:57;;;;;;;1.50;0.70;;;34.60;28.60;;;;;;5048896;28;20037;-40
2021/08/08 07:51:23;;;;;;;0.85;0.60;;;35.70;28.10;;;;;;5051916;28;20044;-40
2021/08/08 07:53:48;;;;;;;1.23;0.50;;;36.00;27.10;;;;;;5046080;28;20037;-41
2021/08/08 07:56:14;;;;;;;1.30;0.70;;;35.40;27.40;;;;;;5051703;28;20021;-40
2021/08/08 07:58:39;;;;;;;1.10;0.57;;;35.00;27.50;;;;;;5051971;28;20041;-39
2021/08/08 08:01:05;;;;;;;0.60;0.60;;;34.00;28.00;;;;;;5047886;28;20021;-41
2021/08/08 08:03:30;;;;;;;0.80;0.60;;;33.40;28.90;;;;;;5045125;28;20408;-39
2021/08/08 08:05:56;;;;;;;0.60;0.60;;;33.10;29.10;;;;;;5051672;28;20029;-38
2021/08/08 08:08:22;;;;;;;0.90;0.60;;;32.10;29.50;;;;;;5052383;28;20140;-39
2021/08/08 08:10:48;;;;;;;0.90;0.55;;;31.30;30.80;;;;;;5050889;28;20448;-39
2021/08/08 08:13:13;;;;;;;1.85;0.70;;;31.00;31.00;;;;;;5032759;28;20052;-39
2021/08/08 08:15:39;;;;;;;1.08;0.40;;;31.70;30.90;;;;;;5033636;28;20045;-39
2021/08/08 08:18:04;;;;;;;1.58;0.70;;;32.20;30.40;;;;;;5049814;28;20230;-40
2021/08/08 08:20:30;;;;;;;0.80;0.80;;;33.80;29.30;;;;;;5032748;28;20025;-41
2021/08/08 08:22:56;;;;;;;1.63;0.70;;;34.40;27.70;;;;;;5051288;28;20485;-41
2021/08/08 08:25:22;;;;;;;1.63;0.40;;;34.60;27.70;;;;;;5051180;28;20036;-39
2021/08/08 08:27:49;;;;;;;0.50;0.50;;;33.50;28.30;;;;;;5051432;28;20080;-39
2021/08/08 08:30:15;;;;;;;0.80;0.70;;;32.70;29.30;;;;;;5050111;28;20025;-39
2021/08/08 08:32:40;;;;;;;2.65;0.60;;;31.70;30.30;;;;;;5039231;28;20021;-40
2021/08/08 08:35:06;;;;;;;2.75;0.63;;;30.70;31.40;;;;;;5051351;28;20165;-38
2021/08/08 08:37:33;;;;;;;1.88;0.50;;;30.00;32.50;;;;;;5051619;28;20120;-39
2021/08/08 08:40:00;;;;;;;2.20;0.90;;;29.30;34.20;;;;;;5050365;28;20033;-38
2021/08/08 08:42:29;;;;;;;0.75;0.47;;;28.40;35.50;;;;;;5041124;28;20029;-38
2021/08/08 08:44:55;;;;;;;1.77;0.70;;;27.90;37.50;;;;;;5051112;28;20017;-39
2021/08/08 08:47:22;;;;;;;5.55;0.75;;;28.80;36.10;;;;;;5034424;28;20083;-38
2021/08/08 08:49:54;;;;;;;0.55;0.50;;;29.50;35.30;;;;;;5031396;28;20037;-39
2021/08/08 08:52:22;;;;;;;1.75;0.55;;;29.50;34.80;;;;;;5034998;28;20044;-39
2021/08/08 08:54:48;;;;;;;0.50;0.50;;;29.80;34.60;;;;;;5035510;28;20383;-39
2021/08/08 08:57:17;;;;;;;0.75;0.50;;;30.40;34.30;;;;;;5048458;28;20025;-39
2021/08/08 08:59:44;;;;;;;2.33;0.70;;;30.10;34.20;;;;;;5045886;28;20057;-38
2021/08/08 09:02:10;;;;;;;3.15;0.60;;;30.40;34.00;;;;;;5042441;28;20435;-39
2021/08/08 09:04:36;;;;;;;1.85;0.60;;;31.10;33.10;;;;;;5031102;28;20080;-39
2021/08/08 09:07:03;;;;;;;1.65;0.60;;;31.00;32.60;;;;;;5046289;28;20052;-38
2021/08/08 09:09:29;;;;;;;1.05;0.68;;;30.40;32.80;;;;;;5044947;28;20033;-39
2021/08/08 09:11:55;;;;;;;0.50;0.50;;;29.70;33.70;;;;;;5039423;28;20037;-38
2021/08/08 09:14:22;;;;;;;1.23;0.80;;;29.10;34.70;;;;;;5051726;28;20109;-40
2021/08/08 09:16:55;;;;;;;0.82;0.68;;;29.10;35.20;;;;;;5051289;28;20503;-41
2021/08/08 09:19:26;;;;;;;1.00;0.80;;;28.80;35.10;;;;;;5050567;28;20068;-38
2021/08/08 09:21:52;;;;;;;0.77;0.40;;;28.40;36.10;;;;;;5051215;28;20013;-39
2021/08/08 09:24:28;;;;;;;1.23;0.60;;;28.40;36.00;;;;;;5051698;28;20384;-39
2021/08/08 09:27:13;;;;;;;0.73;0.60;;;29.50;34.90;;;;;;5050538;28;20352;-39
2021/08/08 09:29:44;;;;;;;0.90;0.70;;;31.40;32.30;;;;;;5051472;28;20036;-39
2021/08/08 09:32:10;;;;;;;0.45;0.40;;;32.50;30.60;;;;;;5050956;28;20049;-40
2021/08/08 09:34:38;;;;;;;1.00;0.65;;;32.60;30.20;;;;;;5050185;28;20067;-39
2021/08/08 09:37:19;;;;;;;1.60;0.60;;;31.80;30.10;;;;;;5037473;28;20427;-39
2021/08/08 09:39:50;;;;;;;1.05;0.60;;;32.20;30.10;;;;;;5031600;28;20424;-39
2021/08/08 09:42:19;;;;;;;0.73;0.60;;;33.30;29.10;;;;;;5031192;28;20029;-39
2021/08/08 09:44:53;;;;;;;0.45;0.45;;;33.00;28.80;;;;;;5030788;28;20096;-39
2021/08/08 09:47:20;;;;;;;3.03;0.50;;;32.90;28.80;;;;;;5029942;28;20298;-39
2021/08/08 09:49:59;;;;;;;2.42;0.57;;;32.60;29.40;;;;;;5030917;28;20033;-39
2021/08/08 09:52:26;;;;;;;1.23;0.60;;;31.80;29.00;;;;;;5031105;28;20014;-41
2021/08/08 09:54:51;;;;;;;0.57;0.57;;;30.80;30.70;;;;;;5036322;28;20029;-39
2021/08/08 09:57:17;;;;;;;0.70;0.50;;;29.80;32.00;;;;;;5050605;28;20039;-38
2021/08/08 09:59:50;;;;;;;1.63;0.40;;;29.00;33.50;;;;;;5050598;28;20059;-38
2021/08/08 10:02:21;;;;;;;0.50;0.50;;;28.40;35.20;;;;;;5049426;28;20027;-39
2021/08/08 10:04:49;;;;;;;1.23;0.70;;;28.10;35.50;;;;;;5050241;28;20128;-39
2021/08/08 10:07:19;;;;;;;1.95;0.60;;;28.10;36.10;;;;;;5050395;28;20350;-38
2021/08/08 10:09:45;;;;;;;0.47;0.40;;;27.80;37.00;;;;;;5050331;28;20021;-38
2021/08/08 10:12:26;;;;;;;0.88;0.50;;;27.40;37.90;;;;;;5050526;28;20064;-38
2021/08/08 10:14:55;;;;;;;0.93;0.60;;;27.40;39.80;;;;;;5050098;28;20082;-38
2021/08/08 10:17:21;;;;;;;0.73;0.57;;;27.20;40.00;;;;;;5049006;28;20032;-38
2021/08/08 10:19:53;;;;;;;1.15;0.65;;;27.00;40.20;;;;;;5050031;28;20469;-39
2021/08/08 10:22:23;;;;;;;1.80;0.75;;;26.80;43.00;;;;;;5050198;28;20029;-38
2021/08/08 10:24:51;;;;;;;2.72;0.95;;;26.70;42.70;;;;;;5050279;28;20369;-38
2021/08/08 10:27:21;;;;;;;0.57;0.50;;;26.70;42.30;;;;;;5049237;28;20159;-38
2021/08/08 10:29:48;;;;;;;1.55;0.85;;;26.60;42.90;;;;;;5035329;28;20083;-38
2021/08/08 10:32:14;;;;;;;0.52;0.50;;;26.50;43.20;;;;;;5029192;28;20018;-38
2021/08/08 10:34:40;;;;;;;1.10;0.60;;;26.50;43.60;;;;;;5030188;28;20480;-38
2021/08/08 10:37:10;;;;;;;1.35;0.70;;;26.40;44.10;;;;;;5029886;28;20049;-39
2021/08/08 10:39:46;;;;;;;0.85;0.63;;;26.40;44.10;;;;;;5030230;28;20028;-38
2021/08/08 10:42:12;;;;;;;2.15;0.80;;;26.60;44.50;;;;;;5029799;28;20025;-38
2021/08/08 10:44:44;;;;;;;1.33;0.70;;;26.70;44.20;;;;;;5030480;28;20029;-38
2021/08/08 10:47:10;;;;;;;0.77;0.68;;;26.70;44.20;;;;;;5029089;28;20032;-38
2021/08/08 10:49:35;;;;;;;2.15;0.82;;;26.60;44.20;;;;;;5029937;28;20561;-39
2021/08/08 10:52:05;;;;;;;0.63;0.60;;;26.50;44.40;;;;;;5030014;28;20033;-40
2021/08/08 10:54:44;;;;;;;0.85;0.50;;;26.30;45.20;;;;;;5029781;28;20091;-37
2021/08/08 10:57:11;;;;;;;1.20;0.80;;;26.30;46.60;;;;;;5035241;28;20028;-37
2021/08/08 10:59:48;;;;;;;0.50;0.50;;;26.40;45.80;;;;;;5051357;28;20062;-38
2021/08/08 11:02:16;;;;;;;1.08;0.70;;;26.60;45.70;;;;;;5042989;28;20025;-36
2021/08/08 11:04:42;;;;;;;1.88;0.68;;;26.40;44.50;;;;;;5046177;28;20053;-37
2021/08/08 11:07:09;;;;;;;0.98;0.65;;;26.30;44.40;;;;;;5031588;28;20056;-37
2021/08/08 11:09:36;;;;;;;1.63;0.70;;;26.10;43.90;;;;;;5034121;28;20013;-37
2021/08/08 11:12:03;;;;;;;1.42;0.70;;;26.10;43.50;;;;;;5033461;28;20030;-37
2021/08/08 11:14:28;;;;;;;1.00;0.50;;;26.00;43.20;;;;;;5048912;28;20147;-37
2021/08/08 11:17:00;;;;;;;1.30;0.65;;;26.10;43.30;;;;;;5033231;28;20429;-38
2021/08/08 11:19:36;;;;;;;1.00;0.80;;;26.20;43.30;;;;;;5037866;28;20025;-37
2021/08/08 11:22:09;;;;;;;0.60;0.60;;;26.30;43.50;;;;;;5035342;28;20018;-37
2021/08/08 11:24:38;;;;;;;0.30;0.30;;;26.50;42.50;;;;;;5031103;28;20061;-37
2021/08/08 11:27:07;;;;;;;0.82;0.60;;;26.40;41.30;;;;;;5032025;28;20021;-37
2021/08/08 11:29:34;;;;;;;0.88;0.50;;;26.40;41.20;;;;;;5036967;28;20384;-38
2021/08/08 11:32:02;;;;;;;0.50;0.50;;;26.40;40.80;;;;;;5040327;28;20033;-38
2021/08/08 11:34:28;;;;;;;1.60;0.70;;;26.50;40.70;;;;;;5051721;28;20079;-37
2021/08/08 11:36:56;;;;;;;1.80;0.75;;;26.50;40.60;;;;;;5053840;28;20119;-37
2021/08/08 11:39:33;;;;;;;1.00;0.60;;;26.40;40.60;;;;;;5044688;28;20021;-38
2021/08/08 11:42:04;;;;;;;1.15;0.80;;;26.20;40.50;;;;;;5048917;28;20021;-38
2021/08/08 11:44:39;;;;;;;2.75;1.10;;;26.20;41.00;;;;;;5049251;28;20549;-39
2021/08/08 11:47:05;;;;;;;0.60;0.60;;;26.40;40.60;;;;;;5038935;28;20523;-38
2021/08/08 11:49:44;;;;;;;0.80;0.80;;;26.60;40.50;;;;;;5028386;28;20408;-38
2021/08/08 11:52:14;;;;;;;2.05;1.10;;;26.80;40.80;;;;;;5046704;28;20029;-40
2021/08/08 11:54:40;;;;;;;1.90;0.82;;;26.80;40.20;;;;;;5033615;28;20480;-38
2021/08/08 11:57:09;;;;;;;1.85;0.73;;;26.70;40.50;;;;;;5047875;28;20503;-38
2021/08/08 11:59:37;;;;;;;1.13;0.85;;;26.50;40.50;;;;;;5052380;28;20025;-38
2021/08/08 12:02:07;;;;;;;1.48;0.52;;;26.30;40.80;;;;;;5052222;28;20032;-38
2021/08/08 12:04:35;;;;;;;1.33;0.57;;;26.20;41.60;;;;;;5052014;28;20511;-37
2021/08/08 12:07:04;;;;;;;0.82;0.60;;;26.10;41.90;;;;;;5052117;28;20330;-37
2021/08/08 12:09:32;;;;;;;1.20;0.82;;;26.20;42.50;;;;;;5052105;28;20048;-38
2021/08/08 12:11:58;;;;;;;0.77;0.70;;;26.40;41.80;;;;;;5051756;28;20670;-37
2021/08/08 12:14:33;;;;;;;2.72;1.05;;;26.70;41.70;;;;;;5052285;28;20055;-37
2021/08/08 12:17:07;;;;;;;1.90;0.60;;;26.80;40.30;;;;;;5052009;28;20028;-37
2021/08/08 12:19:34;;;;;;;1.25;0.80;;;26.80;39.60;;;;;;5051793;28;20021;-38
2021/08/08 12:22:02;;;;;;;1.65;1.00;;;26.70;39.40;;;;;;5051830;28;20033;-38
2021/08/08 12:24:37;;;;;;;0.95;0.75;;;26.60;38.60;;;;;;5051682;28;20021;-37
2021/08/08 12:27:04;;;;;;;3.25;0.73;;;26.50;38.80;;;;;;5051701;28;20392;-38
2021/08/08 12:29:32;;;;;;;1.67;0.70;;;26.40;39.60;;;;;;5051817;28;20039;-37
2021/08/08 12:32:09;;;;;;;1.20;0.70;;;26.40;40.10;;;;;;5051525;28;20029;-37
2021/08/08 12:34:35;;;;;;;1.02;0.93;;;26.40;39.30;;;;;;5051844;28;20029;-37
2021/08/08 12:37:09;;;;;;;1.08;0.68;;;26.40;38.60;;;;;;5051458;28;20539;-38
2021/08/08 12:39:35;;;;;;;1.60;0.80;;;26.50;37.70;;;;;;5051602;28;20051;-38
2021/08/08 12:42:02;;;;;;;1.08;0.75;;;26.70;36.20;;;;;;5051381;28;20105;-38
2021/08/08 12:44:36;;;;;;;1.23;0.90;;;26.70;36.30;;;;;;5051668;28;20039;-38
2021/08/08 12:47:05;;;;;;;2.38;0.80;;;26.70;37.30;;;;;;5051660;28;20025;-38